sensor_id;sensor_type;location;lat;lon;timestamp;P1;durP1;ratioP1;P2;durP2;ratioP2
22829;SDS011;11581;51.250;6.778;2023-03-03T00:00:33;29.33;;;17.25;;
22829;SDS011;11581;51.250;6.778;2023-03-03T00:03:01;29.58;;;18.05;;
22829;SDS011;11581;51.250;6.778;2023-03-03T00:05:31;28.30;;;16.55;;
22829;SDS011;11581;51.250;6.778;2023-03-03T00:08:02;28.63;;;17.70;;
22829;SDS011;11581;51.250;6.778;2023-03-03T00:10:29;32.22;;;17.80;;
22829;SDS011;11581;51.250;6.778;2023-03-03T00:12:57;30.52;;;18.63;;
22829;SDS011;11581;51.250;6.778;2023-03-03T00:15:25;26.77;;;17.27;;
22829;SDS011;11581;51.250;6.778;2023-03-03T00:17:53;30.20;;;16.77;;
22829;SDS011;11581;51.250;6.778;2023-03-03T00:23:15;27.63;;;16.05;;
22829;SDS011;11581;51.250;6.778;2023-03-03T00:25:47;30.38;;;17.95;;
22829;SDS011;11581;51.250;6.778;2023-03-03T00:28:23;31.17;;;17.80;;
22829;SDS011;11581;51.250;6.778;2023-03-03T00:30:53;32.38;;;19.38;;
22829;SDS011;11581;51.250;6.778;2023-03-03T00:33:30;29.95;;;17.50;;
22829;SDS011;11581;51.250;6.778;2023-03-03T00:36:05;31.02;;;17.92;;
22829;SDS011;11581;51.250;6.778;2023-03-03T00:38:48;28.23;;;16.65;;
22829;SDS011;11581;51.250;6.778;2023-03-03T00:41:17;31.02;;;18.42;;
22829;SDS011;11581;51.250;6.778;2023-03-03T00:43:48;29.25;;;16.90;;
22829;SDS011;11581;51.250;6.778;2023-03-03T00:46:16;32.00;;;18.10;;
22829;SDS011;11581;51.250;6.778;2023-03-03T00:48:46;32.60;;;19.55;;
22829;SDS011;11581;51.250;6.778;2023-03-03T00:51:24;30.27;;;18.13;;
22829;SDS011;11581;51.250;6.778;2023-03-03T00:53:55;35.35;;;19.90;;
22829;SDS011;11581;51.250;6.778;2023-03-03T00:56:30;31.15;;;19.42;;
22829;SDS011;11581;51.250;6.778;2023-03-03T00:58:57;32.78;;;19.33;;
22829;SDS011;11581;51.250;6.778;2023-03-03T01:01:26;31.77;;;19.30;;
22829;SDS011;11581;51.250;6.778;2023-03-03T01:03:53;32.95;;;19.42;;
22829;SDS011;11581;51.250;6.778;2023-03-03T01:06:20;34.55;;;21.23;;
22829;SDS011;11581;51.250;6.778;2023-03-03T01:08:46;37.67;;;21.85;;
22829;SDS011;11581;51.250;6.778;2023-03-03T01:11:16;34.85;;;19.40;;
22829;SDS011;11581;51.250;6.778;2023-03-03T01:13:47;33.20;;;20.48;;
22829;SDS011;11581;51.250;6.778;2023-03-03T01:16:16;36.05;;;18.92;;
22829;SDS011;11581;51.250;6.778;2023-03-03T01:18:43;36.05;;;21.13;;
22829;SDS011;11581;51.250;6.778;2023-03-03T01:21:10;34.45;;;20.40;;
22829;SDS011;11581;51.250;6.778;2023-03-03T01:23:38;37.67;;;22.63;;
22829;SDS011;11581;51.250;6.778;2023-03-03T01:26:05;37.13;;;22.15;;
22829;SDS011;11581;51.250;6.778;2023-03-03T01:28:34;40.35;;;22.20;;
22829;SDS011;11581;51.250;6.778;2023-03-03T01:31:01;35.22;;;21.00;;
22829;SDS011;11581;51.250;6.778;2023-03-03T01:33:29;35.00;;;22.33;;
22829;SDS011;11581;51.250;6.778;2023-03-03T01:35:56;38.85;;;22.60;;
22829;SDS011;11581;51.250;6.778;2023-03-03T01:38:24;39.60;;;21.60;;
22829;SDS011;11581;51.250;6.778;2023-03-03T01:40:51;35.13;;;20.58;;
22829;SDS011;11581;51.250;6.778;2023-03-03T01:43:19;36.28;;;19.85;;
22829;SDS011;11581;51.250;6.778;2023-03-03T01:48:55;31.70;;;19.33;;
22829;SDS011;11581;51.250;6.778;2023-03-03T01:51:28;36.55;;;20.80;;
22829;SDS011;11581;51.250;6.778;2023-03-03T01:53:58;34.40;;;21.15;;
22829;SDS011;11581;51.250;6.778;2023-03-03T01:56:27;33.20;;;21.05;;
22829;SDS011;11581;51.250;6.778;2023-03-03T01:58:58;43.75;;;23.77;;
22829;SDS011;11581;51.250;6.778;2023-03-03T02:01:30;47.25;;;24.55;;
22829;SDS011;11581;51.250;6.778;2023-03-03T02:03:58;42.15;;;24.98;;
22829;SDS011;11581;51.250;6.778;2023-03-03T02:06:27;44.33;;;26.33;;
22829;SDS011;11581;51.250;6.778;2023-03-03T02:08:59;45.33;;;25.17;;
22829;SDS011;11581;51.250;6.778;2023-03-03T02:11:31;43.70;;;26.13;;
22829;SDS011;11581;51.250;6.778;2023-03-03T02:14:01;42.22;;;26.33;;
22829;SDS011;11581;51.250;6.778;2023-03-03T02:16:30;44.85;;;26.02;;
22829;SDS011;11581;51.250;6.778;2023-03-03T02:18:58;46.20;;;25.35;;
22829;SDS011;11581;51.250;6.778;2023-03-03T02:21:25;42.92;;;26.10;;
22829;SDS011;11581;51.250;6.778;2023-03-03T02:23:54;44.88;;;24.80;;
22829;SDS011;11581;51.250;6.778;2023-03-03T02:26:31;48.40;;;26.15;;
22829;SDS011;11581;51.250;6.778;2023-03-03T02:29:04;47.03;;;25.80;;
22829;SDS011;11581;51.250;6.778;2023-03-03T02:31:32;44.28;;;26.25;;
22829;SDS011;11581;51.250;6.778;2023-03-03T02:33:59;48.78;;;26.15;;
22829;SDS011;11581;51.250;6.778;2023-03-03T02:36:27;45.42;;;24.75;;
22829;SDS011;11581;51.250;6.778;2023-03-03T02:38:58;44.63;;;25.25;;
22829;SDS011;11581;51.250;6.778;2023-03-03T02:41:32;44.28;;;25.38;;
22829;SDS011;11581;51.250;6.778;2023-03-03T02:44:06;40.80;;;23.73;;
22829;SDS011;11581;51.250;6.778;2023-03-03T02:46:35;43.75;;;24.88;;
22829;SDS011;11581;51.250;6.778;2023-03-03T02:49:04;42.38;;;23.90;;
22829;SDS011;11581;51.250;6.778;2023-03-03T02:51:32;43.85;;;23.55;;
22829;SDS011;11581;51.250;6.778;2023-03-03T02:54:01;40.35;;;24.38;;
22829;SDS011;11581;51.250;6.778;2023-03-03T02:56:30;40.25;;;23.77;;
22829;SDS011;11581;51.250;6.778;2023-03-03T02:58:59;44.60;;;25.05;;
22829;SDS011;11581;51.250;6.778;2023-03-03T03:01:28;45.20;;;25.77;;
22829;SDS011;11581;51.250;6.778;2023-03-03T03:04:03;40.63;;;24.27;;
22829;SDS011;11581;51.250;6.778;2023-03-03T03:06:35;45.80;;;23.50;;
22829;SDS011;11581;51.250;6.778;2023-03-03T03:09:02;45.95;;;26.05;;
22829;SDS011;11581;51.250;6.778;2023-03-03T03:11:29;45.03;;;25.10;;
22829;SDS011;11581;51.250;6.778;2023-03-03T03:13:56;41.85;;;24.02;;
22829;SDS011;11581;51.250;6.778;2023-03-03T03:16:24;46.25;;;25.48;;
22829;SDS011;11581;51.250;6.778;2023-03-03T03:18:53;51.28;;;26.25;;
22829;SDS011;11581;51.250;6.778;2023-03-03T03:21:22;47.38;;;25.08;;
22829;SDS011;11581;51.250;6.778;2023-03-03T03:23:49;46.78;;;25.30;;
22829;SDS011;11581;51.250;6.778;2023-03-03T03:26:15;49.28;;;25.90;;
22829;SDS011;11581;51.250;6.778;2023-03-03T03:28:46;47.63;;;27.33;;
22829;SDS011;11581;51.250;6.778;2023-03-03T03:31:14;45.13;;;24.67;;
22829;SDS011;11581;51.250;6.778;2023-03-03T03:33:43;45.88;;;25.77;;
22829;SDS011;11581;51.250;6.778;2023-03-03T03:36:11;48.85;;;25.88;;
22829;SDS011;11581;51.250;6.778;2023-03-03T03:38:37;41.42;;;23.90;;
22829;SDS011;11581;51.250;6.778;2023-03-03T03:41:05;44.58;;;23.88;;
22829;SDS011;11581;51.250;6.778;2023-03-03T03:43:33;45.15;;;24.70;;
22829;SDS011;11581;51.250;6.778;2023-03-03T03:46:01;47.38;;;25.65;;
22829;SDS011;11581;51.250;6.778;2023-03-03T03:48:28;42.55;;;23.58;;
22829;SDS011;11581;51.250;6.778;2023-03-03T03:50:59;41.53;;;22.80;;
22829;SDS011;11581;51.250;6.778;2023-03-03T03:53:28;38.22;;;21.55;;
22829;SDS011;11581;51.250;6.778;2023-03-03T03:55:55;43.30;;;22.52;;
22829;SDS011;11581;51.250;6.778;2023-03-03T03:58:24;41.22;;;23.05;;
22829;SDS011;11581;51.250;6.778;2023-03-03T04:01:00;29.13;;;15.85;;
22829;SDS011;11581;51.250;6.778;2023-03-03T04:03:28;39.83;;;21.98;;
22829;SDS011;11581;51.250;6.778;2023-03-03T04:05:55;36.00;;;20.35;;
22829;SDS011;11581;51.250;6.778;2023-03-03T04:08:23;38.72;;;21.90;;
22829;SDS011;11581;51.250;6.778;2023-03-03T04:10:51;35.15;;;19.67;;
22829;SDS011;11581;51.250;6.778;2023-03-03T04:13:18;38.63;;;20.98;;
22829;SDS011;11581;51.250;6.778;2023-03-03T04:15:46;32.25;;;18.65;;
22829;SDS011;11581;51.250;6.778;2023-03-03T04:18:13;34.50;;;19.08;;
22829;SDS011;11581;51.250;6.778;2023-03-03T04:20:40;38.38;;;20.17;;
22829;SDS011;11581;51.250;6.778;2023-03-03T04:23:08;36.85;;;19.73;;
22829;SDS011;11581;51.250;6.778;2023-03-03T04:25:37;34.83;;;19.40;;
22829;SDS011;11581;51.250;6.778;2023-03-03T04:28:11;35.85;;;18.15;;
22829;SDS011;11581;51.250;6.778;2023-03-03T04:30:38;31.58;;;17.73;;
22829;SDS011;11581;51.250;6.778;2023-03-03T04:33:05;38.22;;;19.95;;
22829;SDS011;11581;51.250;6.778;2023-03-03T04:35:33;41.22;;;19.75;;
22829;SDS011;11581;51.250;6.778;2023-03-03T04:38:01;35.95;;;19.13;;
22829;SDS011;11581;51.250;6.778;2023-03-03T04:40:29;40.88;;;20.98;;
22829;SDS011;11581;51.250;6.778;2023-03-03T04:42:58;35.50;;;19.25;;
22829;SDS011;11581;51.250;6.778;2023-03-03T04:45:26;37.35;;;19.58;;
22829;SDS011;11581;51.250;6.778;2023-03-03T04:47:53;33.97;;;17.17;;
22829;SDS011;11581;51.250;6.778;2023-03-03T04:50:22;33.85;;;17.83;;
22829;SDS011;11581;51.250;6.778;2023-03-03T04:52:49;35.53;;;17.83;;
22829;SDS011;11581;51.250;6.778;2023-03-03T04:55:16;31.35;;;17.70;;
22829;SDS011;11581;51.250;6.778;2023-03-03T04:57:45;30.90;;;18.05;;
22829;SDS011;11581;51.250;6.778;2023-03-03T05:00:15;40.92;;;19.05;;
22829;SDS011;11581;51.250;6.778;2023-03-03T05:02:42;35.40;;;17.48;;
22829;SDS011;11581;51.250;6.778;2023-03-03T05:05:09;32.83;;;17.20;;
22829;SDS011;11581;51.250;6.778;2023-03-03T05:07:37;32.65;;;17.13;;
22829;SDS011;11581;51.250;6.778;2023-03-03T05:10:04;35.17;;;17.58;;
22829;SDS011;11581;51.250;6.778;2023-03-03T05:12:32;34.42;;;17.52;;
22829;SDS011;11581;51.250;6.778;2023-03-03T05:14:59;35.25;;;17.52;;
22829;SDS011;11581;51.250;6.778;2023-03-03T05:17:28;36.13;;;17.90;;
22829;SDS011;11581;51.250;6.778;2023-03-03T05:19:56;35.90;;;16.95;;
22829;SDS011;11581;51.250;6.778;2023-03-03T05:22:23;33.47;;;17.60;;
22829;SDS011;11581;51.250;6.778;2023-03-03T05:24:50;33.60;;;17.10;;
22829;SDS011;11581;51.250;6.778;2023-03-03T05:27:18;33.42;;;17.83;;
22829;SDS011;11581;51.250;6.778;2023-03-03T05:29:45;34.17;;;17.33;;
22829;SDS011;11581;51.250;6.778;2023-03-03T05:32:11;32.20;;;16.83;;
22829;SDS011;11581;51.250;6.778;2023-03-03T05:34:39;32.42;;;15.70;;
22829;SDS011;11581;51.250;6.778;2023-03-03T05:37:06;30.30;;;16.60;;
22829;SDS011;11581;51.250;6.778;2023-03-03T05:39:33;26.65;;;15.15;;
22829;SDS011;11581;51.250;6.778;2023-03-03T05:42:00;27.42;;;14.63;;
22829;SDS011;11581;51.250;6.778;2023-03-03T05:44:27;29.08;;;14.70;;
22829;SDS011;11581;51.250;6.778;2023-03-03T05:46:54;29.42;;;15.98;;
22829;SDS011;11581;51.250;6.778;2023-03-03T05:49:23;28.38;;;14.68;;
22829;SDS011;11581;51.250;6.778;2023-03-03T05:51:51;23.90;;;13.70;;
22829;SDS011;11581;51.250;6.778;2023-03-03T05:54:18;29.25;;;15.00;;
22829;SDS011;11581;51.250;6.778;2023-03-03T05:56:45;28.20;;;14.77;;
22829;SDS011;11581;51.250;6.778;2023-03-03T05:59:11;29.08;;;14.85;;
22829;SDS011;11581;51.250;6.778;2023-03-03T06:01:38;25.67;;;14.68;;
22829;SDS011;11581;51.250;6.778;2023-03-03T06:04:05;25.38;;;14.05;;
22829;SDS011;11581;51.250;6.778;2023-03-03T06:06:32;25.73;;;14.63;;
22829;SDS011;11581;51.250;6.778;2023-03-03T06:09:01;25.40;;;14.05;;
22829;SDS011;11581;51.250;6.778;2023-03-03T06:11:27;22.55;;;13.80;;
22829;SDS011;11581;51.250;6.778;2023-03-03T06:13:54;26.55;;;14.77;;
22829;SDS011;11581;51.250;6.778;2023-03-03T06:16:21;25.30;;;14.30;;
22829;SDS011;11581;51.250;6.778;2023-03-03T06:18:48;28.27;;;15.18;;
22829;SDS011;11581;51.250;6.778;2023-03-03T06:21:15;23.73;;;13.38;;
22829;SDS011;11581;51.250;6.778;2023-03-03T06:23:43;24.42;;;13.52;;
22829;SDS011;11581;51.250;6.778;2023-03-03T06:26:12;24.45;;;12.77;;
22829;SDS011;11581;51.250;6.778;2023-03-03T06:28:39;22.95;;;12.73;;
22829;SDS011;11581;51.250;6.778;2023-03-03T06:31:08;25.17;;;12.60;;
22829;SDS011;11581;51.250;6.778;2023-03-03T06:33:35;24.48;;;13.35;;
22829;SDS011;11581;51.250;6.778;2023-03-03T06:36:03;22.85;;;11.70;;
22829;SDS011;11581;51.250;6.778;2023-03-03T06:38:30;20.90;;;11.43;;
22829;SDS011;11581;51.250;6.778;2023-03-03T06:40:57;22.50;;;12.52;;
22829;SDS011;11581;51.250;6.778;2023-03-03T06:43:27;22.92;;;11.55;;
22829;SDS011;11581;51.250;6.778;2023-03-03T06:45:54;25.17;;;12.48;;
22829;SDS011;11581;51.250;6.778;2023-03-03T06:48:21;19.73;;;11.70;;
22829;SDS011;11581;51.250;6.778;2023-03-03T06:50:48;23.17;;;12.43;;
22829;SDS011;11581;51.250;6.778;2023-03-03T06:53:16;23.90;;;12.38;;
22829;SDS011;11581;51.250;6.778;2023-03-03T06:55:44;21.40;;;11.20;;
22829;SDS011;11581;51.250;6.778;2023-03-03T06:58:12;20.70;;;11.85;;
22829;SDS011;11581;51.250;6.778;2023-03-03T07:00:42;20.23;;;10.95;;
22829;SDS011;11581;51.250;6.778;2023-03-03T07:03:11;21.70;;;11.82;;
22829;SDS011;11581;51.250;6.778;2023-03-03T07:05:41;21.05;;;11.98;;
22829;SDS011;11581;51.250;6.778;2023-03-03T07:08:10;22.05;;;12.00;;
22829;SDS011;11581;51.250;6.778;2023-03-03T07:10:40;22.58;;;11.82;;
22829;SDS011;11581;51.250;6.778;2023-03-03T07:13:15;22.77;;;12.68;;
22829;SDS011;11581;51.250;6.778;2023-03-03T07:15:45;21.38;;;11.48;;
22829;SDS011;11581;51.250;6.778;2023-03-03T07:18:20;20.13;;;11.77;;
22829;SDS011;11581;51.250;6.778;2023-03-03T07:20:54;24.17;;;13.70;;
22829;SDS011;11581;51.250;6.778;2023-03-03T07:23:22;23.88;;;12.63;;
22829;SDS011;11581;51.250;6.778;2023-03-03T07:25:51;24.98;;;13.25;;
22829;SDS011;11581;51.250;6.778;2023-03-03T07:28:19;23.38;;;13.20;;
22829;SDS011;11581;51.250;6.778;2023-03-03T07:30:50;25.10;;;13.13;;
22829;SDS011;11581;51.250;6.778;2023-03-03T07:33:19;24.33;;;13.20;;
22829;SDS011;11581;51.250;6.778;2023-03-03T07:35:51;25.55;;;13.98;;
22829;SDS011;11581;51.250;6.778;2023-03-03T07:38:22;22.85;;;13.18;;
22829;SDS011;11581;51.250;6.778;2023-03-03T07:40:54;23.38;;;12.77;;
22829;SDS011;11581;51.250;6.778;2023-03-03T07:43:28;28.48;;;14.68;;
22829;SDS011;11581;51.250;6.778;2023-03-03T07:46:02;28.25;;;13.95;;
22829;SDS011;11581;51.250;6.778;2023-03-03T07:48:47;26.40;;;13.98;;
22829;SDS011;11581;51.250;6.778;2023-03-03T07:51:19;29.38;;;16.20;;
22829;SDS011;11581;51.250;6.778;2023-03-03T07:53:52;24.73;;;13.52;;
22829;SDS011;11581;51.250;6.778;2023-03-03T07:56:23;26.20;;;14.63;;
22829;SDS011;11581;51.250;6.778;2023-03-03T07:58:54;28.10;;;14.38;;
22829;SDS011;11581;51.250;6.778;2023-03-03T08:01:34;27.92;;;14.70;;
22829;SDS011;11581;51.250;6.778;2023-03-03T08:04:16;25.88;;;14.60;;
22829;SDS011;11581;51.250;6.778;2023-03-03T08:06:52;25.45;;;13.65;;
22829;SDS011;11581;51.250;6.778;2023-03-03T08:09:31;24.58;;;14.63;;
22829;SDS011;11581;51.250;6.778;2023-03-03T08:12:11;26.27;;;14.38;;
22829;SDS011;11581;51.250;6.778;2023-03-03T08:14:45;26.58;;;14.43;;
22829;SDS011;11581;51.250;6.778;2023-03-03T08:17:16;27.88;;;15.30;;
22829;SDS011;11581;51.250;6.778;2023-03-03T08:19:46;27.60;;;14.68;;
22829;SDS011;11581;51.250;6.778;2023-03-03T08:22:14;26.30;;;14.63;;
22829;SDS011;11581;51.250;6.778;2023-03-03T08:24:43;27.25;;;14.88;;
22829;SDS011;11581;51.250;6.778;2023-03-03T08:27:10;35.05;;;18.08;;
22829;SDS011;11581;51.250;6.778;2023-03-03T08:29:37;32.05;;;17.00;;
22829;SDS011;11581;51.250;6.778;2023-03-03T08:32:04;30.17;;;15.70;;
22829;SDS011;11581;51.250;6.778;2023-03-03T08:34:35;30.02;;;16.58;;
22829;SDS011;11581;51.250;6.778;2023-03-03T08:37:01;32.55;;;16.23;;
22829;SDS011;11581;51.250;6.778;2023-03-03T08:39:28;34.22;;;17.88;;
22829;SDS011;11581;51.250;6.778;2023-03-03T08:41:57;32.03;;;16.38;;
22829;SDS011;11581;51.250;6.778;2023-03-03T08:44:24;31.23;;;16.08;;
22829;SDS011;11581;51.250;6.778;2023-03-03T08:46:50;29.80;;;16.15;;
22829;SDS011;11581;51.250;6.778;2023-03-03T08:49:18;32.00;;;16.85;;
22829;SDS011;11581;51.250;6.778;2023-03-03T08:51:46;31.58;;;16.02;;
22829;SDS011;11581;51.250;6.778;2023-03-03T08:54:13;31.08;;;17.05;;
22829;SDS011;11581;51.250;6.778;2023-03-03T08:56:39;32.30;;;17.33;;
22829;SDS011;11581;51.250;6.778;2023-03-03T08:59:06;31.73;;;17.02;;
22829;SDS011;11581;51.250;6.778;2023-03-03T09:01:33;34.08;;;18.13;;
22829;SDS011;11581;51.250;6.778;2023-03-03T09:04:00;32.53;;;17.98;;
22829;SDS011;11581;51.250;6.778;2023-03-03T09:06:27;42.15;;;20.10;;
22829;SDS011;11581;51.250;6.778;2023-03-03T09:08:55;37.08;;;19.17;;
22829;SDS011;11581;51.250;6.778;2023-03-03T09:11:27;37.80;;;18.75;;
22829;SDS011;11581;51.250;6.778;2023-03-03T09:13:58;32.22;;;17.95;;
22829;SDS011;11581;51.250;6.778;2023-03-03T09:16:29;32.85;;;17.98;;
22829;SDS011;11581;51.250;6.778;2023-03-03T09:19:05;33.70;;;17.92;;
22829;SDS011;11581;51.250;6.778;2023-03-03T09:21:44;36.75;;;18.23;;
22829;SDS011;11581;51.250;6.778;2023-03-03T09:24:16;35.15;;;17.98;;
22829;SDS011;11581;51.250;6.778;2023-03-03T09:26:50;35.25;;;17.90;;
22829;SDS011;11581;51.250;6.778;2023-03-03T09:29:23;33.55;;;17.95;;
22829;SDS011;11581;51.250;6.778;2023-03-03T09:31:52;37.85;;;19.48;;
22829;SDS011;11581;51.250;6.778;2023-03-03T09:34:21;37.40;;;19.33;;
22829;SDS011;11581;51.250;6.778;2023-03-03T09:36:52;36.20;;;17.85;;
22829;SDS011;11581;51.250;6.778;2023-03-03T09:39:23;33.75;;;18.27;;
22829;SDS011;11581;51.250;6.778;2023-03-03T09:41:58;37.13;;;18.33;;
22829;SDS011;11581;51.250;6.778;2023-03-03T09:47:34;26.95;;;14.23;;
22829;SDS011;11581;51.250;6.778;2023-03-03T09:50:11;32.17;;;15.70;;
22829;SDS011;11581;51.250;6.778;2023-03-03T09:52:53;30.40;;;15.43;;
22829;SDS011;11581;51.250;6.778;2023-03-03T09:55:38;34.33;;;17.42;;
22829;SDS011;11581;51.250;6.778;2023-03-03T10:01:17;32.33;;;16.02;;
22829;SDS011;11581;51.250;6.778;2023-03-03T10:04:03;30.30;;;15.50;;
22829;SDS011;11581;51.250;6.778;2023-03-03T10:06:45;30.52;;;15.73;;
22829;SDS011;11581;51.250;6.778;2023-03-03T10:09:30;30.05;;;16.58;;
22829;SDS011;11581;51.250;6.778;2023-03-03T10:12:13;31.75;;;16.38;;
22829;SDS011;11581;51.250;6.778;2023-03-03T10:15:09;31.75;;;16.48;;
22829;SDS011;11581;51.250;6.778;2023-03-03T10:17:46;26.92;;;14.13;;
22829;SDS011;11581;51.250;6.778;2023-03-03T10:20:21;32.13;;;14.13;;
22829;SDS011;11581;51.250;6.778;2023-03-03T10:23:03;27.10;;;14.40;;
22829;SDS011;11581;51.250;6.778;2023-03-03T10:25:49;26.23;;;12.98;;
22829;SDS011;11581;51.250;6.778;2023-03-03T10:31:22;26.10;;;14.70;;
22829;SDS011;11581;51.250;6.778;2023-03-03T10:34:00;28.45;;;14.77;;
22829;SDS011;11581;51.250;6.778;2023-03-03T10:36:37;24.02;;;12.30;;
22829;SDS011;11581;51.250;6.778;2023-03-03T10:39:20;25.20;;;13.07;;
22829;SDS011;11581;51.250;6.778;2023-03-03T10:42:04;22.42;;;11.98;;
22829;SDS011;11581;51.250;6.778;2023-03-03T10:44:51;23.73;;;13.45;;
22829;SDS011;11581;51.250;6.778;2023-03-03T10:50:25;29.15;;;13.73;;
22829;SDS011;11581;51.250;6.778;2023-03-03T10:53:02;28.00;;;13.23;;
22829;SDS011;11581;51.250;6.778;2023-03-03T10:55:43;25.73;;;13.23;;
22829;SDS011;11581;51.250;6.778;2023-03-03T10:58:25;25.67;;;13.95;;
22829;SDS011;11581;51.250;6.778;2023-03-03T11:01:12;25.20;;;13.70;;
22829;SDS011;11581;51.250;6.778;2023-03-03T11:06:48;25.02;;;13.10;;
22829;SDS011;11581;51.250;6.778;2023-03-03T11:09:26;26.10;;;14.57;;
22829;SDS011;11581;51.250;6.778;2023-03-03T11:12:03;29.27;;;14.70;;
22829;SDS011;11581;51.250;6.778;2023-03-03T11:14:42;24.13;;;13.63;;
22829;SDS011;11581;51.250;6.778;2023-03-03T11:17:14;23.13;;;12.23;;
22829;SDS011;11581;51.250;6.778;2023-03-03T11:19:54;23.10;;;13.45;;
22829;SDS011;11581;51.250;6.778;2023-03-03T11:22:37;26.02;;;13.82;;
22829;SDS011;11581;51.250;6.778;2023-03-03T11:25:17;24.48;;;13.05;;
22829;SDS011;11581;51.250;6.778;2023-03-03T11:30:52;25.00;;;13.18;;
22829;SDS011;11581;51.250;6.778;2023-03-03T11:33:31;27.10;;;13.88;;
22829;SDS011;11581;51.250;6.778;2023-03-03T11:36:08;24.08;;;12.52;;
22829;SDS011;11581;51.250;6.778;2023-03-03T11:38:40;27.60;;;14.30;;
22829;SDS011;11581;51.250;6.778;2023-03-03T11:41:19;27.08;;;14.00;;
22829;SDS011;11581;51.250;6.778;2023-03-03T11:43:56;23.52;;;13.75;;
22829;SDS011;11581;51.250;6.778;2023-03-03T11:46:30;24.77;;;13.13;;
22829;SDS011;11581;51.250;6.778;2023-03-03T11:49:04;24.00;;;12.52;;
22829;SDS011;11581;51.250;6.778;2023-03-03T11:54:24;26.63;;;14.32;;
22829;SDS011;11581;51.250;6.778;2023-03-03T11:56:56;28.33;;;14.60;;
22829;SDS011;11581;51.250;6.778;2023-03-03T12:02:44;33.83;;;16.80;;
22829;SDS011;11581;51.250;6.778;2023-03-03T12:05:41;28.75;;;14.70;;
22829;SDS011;11581;51.250;6.778;2023-03-03T12:08:25;27.17;;;14.90;;
22829;SDS011;11581;51.250;6.778;2023-03-03T12:11:01;25.42;;;13.27;;
22829;SDS011;11581;51.250;6.778;2023-03-03T12:13:35;24.17;;;13.35;;
22829;SDS011;11581;51.250;6.778;2023-03-03T12:16:11;27.33;;;14.25;;
22829;SDS011;11581;51.250;6.778;2023-03-03T12:18:52;26.00;;;13.15;;
22829;SDS011;11581;51.250;6.778;2023-03-03T12:21:35;24.27;;;13.18;;
22829;SDS011;11581;51.250;6.778;2023-03-03T12:24:20;21.98;;;12.93;;
22829;SDS011;11581;51.250;6.778;2023-03-03T12:26:58;24.75;;;13.45;;
22829;SDS011;11581;51.250;6.778;2023-03-03T12:29:40;23.98;;;12.90;;
22829;SDS011;11581;51.250;6.778;2023-03-03T12:32:16;26.73;;;13.10;;
22829;SDS011;11581;51.250;6.778;2023-03-03T12:34:53;22.20;;;12.82;;
22829;SDS011;11581;51.250;6.778;2023-03-03T12:37:33;22.35;;;12.30;;
22829;SDS011;11581;51.250;6.778;2023-03-03T12:40:18;27.10;;;13.05;;
22829;SDS011;11581;51.250;6.778;2023-03-03T12:45:44;24.65;;;13.02;;
22829;SDS011;11581;51.250;6.778;2023-03-03T12:48:20;23.73;;;12.82;;
22829;SDS011;11581;51.250;6.778;2023-03-03T12:50:56;22.52;;;12.23;;
22829;SDS011;11581;51.250;6.778;2023-03-03T12:53:36;21.65;;;11.55;;
22829;SDS011;11581;51.250;6.778;2023-03-03T12:56:13;24.20;;;12.52;;
22829;SDS011;11581;51.250;6.778;2023-03-03T12:58:50;21.65;;;12.57;;
22829;SDS011;11581;51.250;6.778;2023-03-03T13:01:29;23.60;;;12.77;;
22829;SDS011;11581;51.250;6.778;2023-03-03T13:04:04;22.58;;;12.90;;
22829;SDS011;11581;51.250;6.778;2023-03-03T13:06:38;24.30;;;12.23;;
22829;SDS011;11581;51.250;6.778;2023-03-03T13:09:22;22.65;;;12.15;;
22829;SDS011;11581;51.250;6.778;2023-03-03T13:12:15;21.98;;;11.18;;
22829;SDS011;11581;51.250;6.778;2023-03-03T13:14:50;21.75;;;12.50;;
22829;SDS011;11581;51.250;6.778;2023-03-03T13:17:23;20.65;;;11.40;;
22829;SDS011;11581;51.250;6.778;2023-03-03T13:19:55;21.08;;;11.32;;
22829;SDS011;11581;51.250;6.778;2023-03-03T13:22:29;19.63;;;11.20;;
22829;SDS011;11581;51.250;6.778;2023-03-03T13:25:02;18.58;;;11.27;;
22829;SDS011;11581;51.250;6.778;2023-03-03T13:27:37;24.75;;;12.85;;
22829;SDS011;11581;51.250;6.778;2023-03-03T13:30:13;24.08;;;13.65;;
22829;SDS011;11581;51.250;6.778;2023-03-03T13:32:43;22.95;;;12.18;;
22829;SDS011;11581;51.250;6.778;2023-03-03T13:35:18;25.38;;;12.52;;
22829;SDS011;11581;51.250;6.778;2023-03-03T13:37:55;23.35;;;12.38;;
22829;SDS011;11581;51.250;6.778;2023-03-03T13:40:23;21.42;;;12.05;;
22829;SDS011;11581;51.250;6.778;2023-03-03T13:42:56;20.90;;;12.20;;
22829;SDS011;11581;51.250;6.778;2023-03-03T13:45:29;18.25;;;11.63;;
22829;SDS011;11581;51.250;6.778;2023-03-03T13:48:06;18.02;;;11.10;;
22829;SDS011;11581;51.250;6.778;2023-03-03T13:50:41;19.50;;;10.93;;
22829;SDS011;11581;51.250;6.778;2023-03-03T13:53:35;20.63;;;11.50;;
22829;SDS011;11581;51.250;6.778;2023-03-03T13:56:11;19.45;;;10.55;;
22829;SDS011;11581;51.250;6.778;2023-03-03T13:58:51;19.10;;;11.80;;
22829;SDS011;11581;51.250;6.778;2023-03-03T14:01:31;18.75;;;11.15;;
22829;SDS011;11581;51.250;6.778;2023-03-03T14:04:11;19.45;;;10.80;;
22829;SDS011;11581;51.250;6.778;2023-03-03T14:06:44;19.67;;;11.52;;
22829;SDS011;11581;51.250;6.778;2023-03-03T14:09:20;19.90;;;10.93;;
22829;SDS011;11581;51.250;6.778;2023-03-03T14:12:03;18.45;;;11.82;;
22829;SDS011;11581;51.250;6.778;2023-03-03T14:14:43;20.48;;;11.93;;
22829;SDS011;11581;51.250;6.778;2023-03-03T14:17:19;18.80;;;10.93;;
22829;SDS011;11581;51.250;6.778;2023-03-03T14:19:58;18.92;;;11.35;;
22829;SDS011;11581;51.250;6.778;2023-03-03T14:22:33;20.50;;;11.77;;
22829;SDS011;11581;51.250;6.778;2023-03-03T14:25:10;16.52;;;10.98;;
22829;SDS011;11581;51.250;6.778;2023-03-03T14:27:39;20.63;;;11.02;;
22829;SDS011;11581;51.250;6.778;2023-03-03T14:33:19;20.77;;;12.00;;
22829;SDS011;11581;51.250;6.778;2023-03-03T14:35:51;18.83;;;11.30;;
22829;SDS011;11581;51.250;6.778;2023-03-03T14:38:35;23.65;;;13.52;;
22829;SDS011;11581;51.250;6.778;2023-03-03T14:41:10;21.13;;;12.95;;
22829;SDS011;11581;51.250;6.778;2023-03-03T14:43:41;21.63;;;12.48;;
22829;SDS011;11581;51.250;6.778;2023-03-03T14:49:11;19.92;;;13.15;;
22829;SDS011;11581;51.250;6.778;2023-03-03T14:51:41;18.45;;;12.30;;
22829;SDS011;11581;51.250;6.778;2023-03-03T14:54:15;19.25;;;12.63;;
22829;SDS011;11581;51.250;6.778;2023-03-03T14:56:58;17.23;;;11.07;;
22829;SDS011;11581;51.250;6.778;2023-03-03T14:59:38;18.15;;;11.48;;
22829;SDS011;11581;51.250;6.778;2023-03-03T15:05:20;18.55;;;12.05;;
22829;SDS011;11581;51.250;6.778;2023-03-03T15:07:50;19.60;;;11.88;;
22829;SDS011;11581;51.250;6.778;2023-03-03T15:10:35;20.23;;;12.05;;
22829;SDS011;11581;51.250;6.778;2023-03-03T15:13:09;17.38;;;11.27;;
22829;SDS011;11581;51.250;6.778;2023-03-03T15:15:59;17.65;;;11.45;;
22829;SDS011;11581;51.250;6.778;2023-03-03T15:18:30;18.27;;;11.75;;
22829;SDS011;11581;51.250;6.778;2023-03-03T15:21:01;20.50;;;12.70;;
22829;SDS011;11581;51.250;6.778;2023-03-03T15:23:44;17.52;;;11.82;;
22829;SDS011;11581;51.250;6.778;2023-03-03T15:26:22;18.45;;;11.50;;
22829;SDS011;11581;51.250;6.778;2023-03-03T15:28:56;19.30;;;11.93;;
22829;SDS011;11581;51.250;6.778;2023-03-03T15:31:33;21.27;;;12.68;;